createdAt,value
2019-04-30T00:02:22.488Z,10.60
2019-04-30T00:04:51.711Z,8.10
2019-04-30T00:07:21.768Z,9.57
2019-04-30T00:09:54.083Z,9.63
2019-04-30T00:12:25.768Z,7.27
2019-04-30T00:14:55.137Z,10.47
2019-04-30T00:17:25.649Z,8.97
2019-04-30T00:19:59.842Z,8.97
2019-04-30T00:22:33.884Z,8.00
2019-04-30T00:24:57.115Z,8.07
2019-04-30T00:27:30.284Z,7.23
2019-04-30T00:30:00.266Z,9.77
2019-04-30T00:32:30.204Z,9.33
2019-04-30T00:34:59.601Z,9.87
2019-04-30T00:37:30.671Z,8.67
2019-04-30T00:40:00.105Z,9.00
2019-04-30T00:42:32.906Z,7.87
2019-04-30T00:45:06.640Z,11.00
2019-04-30T00:47:35.168Z,9.90
2019-04-30T00:50:08.284Z,7.77
2019-04-30T00:52:37.511Z,9.73
2019-04-30T00:55:09.013Z,7.23
2019-04-30T00:57:43.572Z,7.87
2019-04-30T01:00:12.423Z,8.23
2019-04-30T01:02:48.199Z,9.37
2019-04-30T01:05:19.833Z,9.20
2019-04-30T01:08:04.951Z,6.87
2019-04-30T01:10:34.802Z,10.07
2019-04-30T01:13:08.132Z,10.67
2019-04-30T01:15:43.999Z,9.67
2019-04-30T01:18:11.588Z,11.40
2019-04-30T01:20:53.812Z,9.50
2019-04-30T01:23:21.626Z,7.27
2019-04-30T01:25:51.530Z,10.63
2019-04-30T01:28:24.298Z,9.17
2019-04-30T01:30:59.801Z,9.43
2019-04-30T01:33:34.659Z,10.70
2019-04-30T01:36:16.073Z,9.57
2019-04-30T01:38:52.538Z,7.80
2019-04-30T01:41:48.814Z,11.57
2019-04-30T01:44:19.513Z,8.17
2019-04-30T01:46:53.090Z,8.20
2019-04-30T01:49:41.961Z,8.63
2019-04-30T01:52:06.649Z,8.80
2019-04-30T01:54:41.126Z,8.80
2019-04-30T01:57:39.039Z,8.83
2019-04-30T02:00:25.240Z,8.83
2019-04-30T02:02:54.514Z,9.07
2019-04-30T02:05:23.833Z,9.63
2019-04-30T02:07:54.406Z,9.77
2019-04-30T02:10:32.324Z,9.70
2019-04-30T02:13:01.330Z,10.47
2019-04-30T02:15:30.765Z,10.97
2019-04-30T02:18:00.726Z,9.17
2019-04-30T02:20:32.288Z,9.77
2019-04-30T02:23:01.648Z,12.73
2019-04-30T02:25:30.978Z,9.80
2019-04-30T02:28:00.386Z,12.50
2019-04-30T02:30:30.767Z,9.83
2019-04-30T02:33:04.373Z,13.10
2019-04-30T02:35:46.519Z,11.17
2019-04-30T02:38:26.108Z,10.30
2019-04-30T02:40:59.557Z,10.20
2019-04-30T02:43:33.789Z,11.53
2019-04-30T02:46:10.065Z,9.67
2019-04-30T02:48:40.669Z,10.27
2019-04-30T02:51:12.635Z,11.13
2019-04-30T02:54:09.769Z,12.17
2019-04-30T02:56:40.105Z,11.67
2019-04-30T02:59:10.423Z,11.50
2019-04-30T03:01:43.595Z,9.87
2019-04-30T03:04:22.501Z,12.10
2019-04-30T03:06:54.675Z,12.10
2019-04-30T03:09:23.914Z,11.10
2019-04-30T03:11:53.359Z,11.10
2019-04-30T03:14:22.930Z,11.50
2019-04-30T03:17:17.334Z,11.87
2019-04-30T03:19:56.360Z,10.90
2019-04-30T03:22:31.820Z,12.03
2019-04-30T03:25:04.857Z,9.60
2019-04-30T03:27:34.098Z,10.33
2019-04-30T03:30:12.645Z,10.00
2019-04-30T03:32:43.027Z,16.00
2019-04-30T03:35:13.362Z,12.23
2019-04-30T03:37:49.548Z,13.10
2019-04-30T03:40:20.241Z,12.13
2019-04-30T03:42:49.572Z,9.90
2019-04-30T03:45:20.405Z,12.63
2019-04-30T03:47:53.887Z,13.63
2019-04-30T03:50:32.857Z,11.50
2019-04-30T03:53:00.439Z,13.43
2019-04-30T03:55:29.857Z,14.90
2019-04-30T03:58:01.173Z,15.90
2019-04-30T04:00:55.866Z,14.03
2019-04-30T04:03:25.155Z,14.10
2019-04-30T04:06:16.108Z,14.47
2019-04-30T04:08:51.474Z,18.63
2019-04-30T04:11:29.720Z,20.63
2019-04-30T04:13:59.828Z,21.97
2019-04-30T04:16:32.543Z,19.73
2019-04-30T04:19:04.914Z,17.13
2019-04-30T04:21:34.036Z,18.87
2019-04-30T04:24:05.285Z,17.37
2019-04-30T04:26:44.157Z,17.67
2019-04-30T04:29:13.602Z,14.80
2019-04-30T04:31:43.173Z,14.77
2019-04-30T04:34:12.440Z,15.83
2019-04-30T04:36:43.338Z,18.07
2019-04-30T04:39:13.106Z,14.20
2019-04-30T04:41:50.566Z,15.17
2019-04-30T04:44:16.625Z,14.13
2019-04-30T04:46:46.112Z,14.83
2019-04-30T04:49:15.417Z,14.40
2019-04-30T04:51:44.770Z,14.70
2019-04-30T04:54:14.091Z,14.70
2019-04-30T04:56:43.211Z,17.13
2019-04-30T04:59:16.882Z,16.10
2019-04-30T05:01:49.037Z,20.37
2019-04-30T05:04:23.577Z,16.03
2019-04-30T05:07:00.024Z,17.70
2019-04-30T05:09:31.850Z,15.87
2019-04-30T05:12:08.157Z,15.77
2019-04-30T05:14:38.577Z,13.97
2019-04-30T05:17:13.018Z,16.53
2019-04-30T05:19:46.051Z,13.70
2019-04-30T05:22:15.215Z,15.43
2019-04-30T05:24:45.117Z,19.60
2019-04-30T05:27:14.591Z,17.23
2019-04-30T05:29:44.209Z,14.40
2019-04-30T05:32:13.376Z,17.47
2019-04-30T05:34:42.797Z,19.17
2019-04-30T05:37:13.921Z,17.63
2019-04-30T05:39:43.315Z,17.70
2019-04-30T05:42:19.635Z,19.90
2019-04-30T05:44:49.844Z,17.87
2019-04-30T05:47:32.345Z,20.57
2019-04-30T05:50:00.853Z,19.50
2019-04-30T05:52:31.246Z,21.30
2019-04-30T05:55:00.650Z,20.47
2019-04-30T05:57:31.717Z,24.40
2019-04-30T06:00:00.913Z,20.47
2019-04-30T06:02:33.696Z,21.23
2019-04-30T06:05:01.941Z,19.60
2019-04-30T06:07:31.608Z,20.37
2019-04-30T06:10:11.275Z,20.80
2019-04-30T06:12:46.713Z,21.73
2019-04-30T06:15:32.242Z,21.23
2019-04-30T06:18:10.859Z,22.20
2019-04-30T06:20:32.855Z,25.67
2019-04-30T06:23:02.776Z,25.67
2019-04-30T06:25:52.101Z,25.17
2019-04-30T06:28:04.367Z,26.00
2019-04-30T06:30:33.925Z,25.10
2019-04-30T06:33:04.555Z,27.33
2019-04-30T06:35:34.197Z,27.67
2019-04-30T06:38:03.227Z,28.30
2019-04-30T06:40:32.448Z,29.37
2019-04-30T06:43:02.237Z,26.40
2019-04-30T06:45:32.834Z,25.37
2019-04-30T06:48:04.444Z,26.60
2019-04-30T06:50:33.991Z,25.83
2019-04-30T06:53:03.107Z,29.90
2019-04-30T06:55:35.933Z,29.13
2019-04-30T06:58:12.843Z,32.00
2019-04-30T07:00:39.599Z,27.97
2019-04-30T07:03:09.635Z,31.40
2019-04-30T07:05:39.384Z,27.57
2019-04-30T07:08:36.076Z,29.80
2019-04-30T07:11:34.310Z,28.37
2019-04-30T07:14:03.726Z,30.77
2019-04-30T07:16:32.862Z,28.23
2019-04-30T07:19:01.935Z,26.07
2019-04-30T07:21:31.781Z,25.63
2019-04-30T07:24:01.161Z,23.30
2019-04-30T07:26:30.906Z,28.40
2019-04-30T07:29:02.608Z,23.10
2019-04-30T07:31:31.800Z,20.90
2019-04-30T07:34:01.429Z,21.37
2019-04-30T07:36:45.278Z,20.17
2019-04-30T07:39:02.330Z,17.33
2019-04-30T07:41:31.430Z,22.97
2019-04-30T07:44:00.950Z,17.63
2019-04-30T07:46:34.760Z,18.63
2019-04-30T07:49:00.921Z,17.87
2019-04-30T07:51:32.212Z,17.30
2019-04-30T07:54:01.288Z,17.00
2019-04-30T07:56:37.299Z,15.63
2019-04-30T07:59:02.827Z,14.03
2019-04-30T08:01:32.797Z,17.03
2019-04-30T08:04:24.359Z,15.50
2019-04-30T08:06:53.939Z,15.03
2019-04-30T08:09:23.123Z,13.00
2019-04-30T08:11:52.390Z,14.37
2019-04-30T08:14:24.350Z,15.03
2019-04-30T08:16:52.820Z,14.43
2019-04-30T08:19:25.502Z,13.77
2019-04-30T08:21:55.049Z,13.13
2019-04-30T17:45:56.015Z,11.37
2019-04-30T17:48:25.314Z,34.47
2019-04-30T17:50:54.566Z,33.00
2019-04-30T17:53:23.912Z,31.70
2019-04-30T17:55:53.805Z,30.53
2019-04-30T17:58:22.753Z,32.40
2019-04-30T18:00:55.013Z,28.80
2019-04-30T18:03:28.930Z,31.03
2019-04-30T18:05:59.214Z,33.73
2019-04-30T18:08:28.903Z,31.77
2019-04-30T18:10:58.334Z,27.47
2019-04-30T18:13:28.007Z,29.90
2019-04-30T18:16:00.276Z,30.60
2019-04-30T18:18:41.445Z,30.47
2019-04-30T18:21:23.279Z,35.30
2019-04-30T18:24:25.028Z,30.20
2019-04-30T18:26:59.087Z,35.53
2019-04-30T18:29:31.694Z,29.63
2019-04-30T18:32:01.190Z,30.07
2019-04-30T18:34:30.427Z,31.20
2019-04-30T18:36:59.613Z,30.47
2019-04-30T18:39:29.037Z,33.20
2019-04-30T18:41:58.451Z,31.23
2019-04-30T18:44:30.005Z,35.20
2019-04-30T18:46:59.094Z,33.53
2019-04-30T18:49:28.759Z,35.73
2019-04-30T18:52:00.668Z,37.10
2019-04-30T18:54:30.169Z,35.00
2019-04-30T18:56:59.507Z,39.23
2019-04-30T18:59:28.860Z,41.30
2019-04-30T19:01:58.204Z,41.20
2019-04-30T19:04:28.834Z,41.40
2019-04-30T19:07:01.583Z,40.27
2019-04-30T19:09:44.560Z,42.40
2019-04-30T19:12:35.653Z,46.40
2019-04-30T19:15:36.714Z,41.57
2019-04-30T19:18:10.112Z,47.70
2019-04-30T19:20:43.198Z,45.87
2019-04-30T19:23:12.499Z,50.37
2019-04-30T19:25:41.803Z,46.87
2019-04-30T19:28:14.244Z,52.60
2019-04-30T19:30:41.376Z,52.33
2019-04-30T19:33:10.674Z,48.47
2019-04-30T19:35:40.007Z,50.10
2019-04-30T19:38:09.285Z,47.47
2019-04-30T19:40:39.169Z,48.67
2019-04-30T19:43:08.366Z,48.50
2019-04-30T19:45:37.613Z,50.23
2019-04-30T19:48:08.924Z,48.53
2019-04-30T19:50:38.123Z,51.37
2019-04-30T19:53:08.808Z,49.63
2019-04-30T19:55:39.372Z,49.97
2019-04-30T19:58:10.669Z,50.37
2019-04-30T20:00:39.315Z,51.70
2019-04-30T20:03:09.586Z,52.50
2019-04-30T20:05:39.423Z,59.73
2019-04-30T20:08:11.006Z,59.63
2019-04-30T20:10:39.932Z,59.93
2019-04-30T20:13:10.834Z,59.30
2019-04-30T20:15:40.245Z,65.93
2019-04-30T20:18:09.272Z,67.13
2019-04-30T20:20:39.910Z,66.00
2019-04-30T20:23:08.997Z,67.03
2019-04-30T20:25:37.990Z,64.77
2019-04-30T20:28:12.027Z,71.47
2019-04-30T20:30:41.385Z,65.83
2019-04-30T20:33:12.824Z,75.43
2019-04-30T20:35:41.966Z,78.57
2019-04-30T20:38:28.645Z,73.10
2019-04-30T20:41:02.417Z,76.90
2019-04-30T20:43:28.697Z,80.27
2019-04-30T20:45:58.355Z,73.87
2019-04-30T20:48:29.953Z,76.73
2019-04-30T20:51:01.113Z,74.90
2019-04-30T20:53:30.013Z,73.27
2019-04-30T20:55:59.389Z,75.70
2019-04-30T20:58:28.790Z,78.70
2019-04-30T21:01:04.051Z,74.67
2019-04-30T21:03:36.331Z,69.60
2019-04-30T21:06:05.532Z,70.43
2019-04-30T21:08:34.604Z,70.03
2019-04-30T21:11:03.841Z,72.23
2019-04-30T21:13:32.948Z,71.30
2019-04-30T21:16:02.077Z,70.43
2019-04-30T21:18:32.540Z,74.73
2019-04-30T21:21:01.880Z,74.73
2019-04-30T21:23:32.149Z,70.33
2019-04-30T21:26:01.328Z,67.27
2019-04-30T21:28:30.321Z,71.53
2019-04-30T21:31:02.259Z,70.77
2019-04-30T21:33:38.529Z,67.60
2019-04-30T21:36:30.162Z,60.83
2019-04-30T21:38:59.716Z,67.33
2019-04-30T21:41:29.702Z,61.17
2019-04-30T21:43:58.802Z,58.77
2019-04-30T21:46:29.339Z,62.77
2019-04-30T21:48:58.789Z,58.10
2019-04-30T21:51:27.906Z,56.27
2019-04-30T21:53:57.067Z,62.20
2019-04-30T21:56:26.276Z,59.80
2019-04-30T21:58:55.161Z,56.03
2019-04-30T22:01:28.237Z,56.87
2019-04-30T22:03:57.515Z,56.27
2019-04-30T22:06:26.529Z,59.47
2019-04-30T22:08:58.617Z,59.90
2019-04-30T22:11:29.654Z,62.10
2019-04-30T22:13:58.798Z,60.13
2019-04-30T22:16:32.430Z,58.43
2019-04-30T22:19:23.652Z,55.77
2019-04-30T22:21:53.429Z,54.53
2019-04-30T22:24:22.646Z,56.50
2019-04-30T22:26:51.887Z,52.10
2019-04-30T22:29:20.703Z,57.27
2019-04-30T22:31:49.783Z,52.97
2019-04-30T22:34:18.667Z,55.20
2019-04-30T22:36:50.754Z,48.73
2019-04-30T22:39:41.510Z,52.40
2019-04-30T22:42:33.937Z,53.70
2019-04-30T22:45:04.907Z,51.93
2019-04-30T22:47:39.428Z,48.47
2019-04-30T22:50:07.508Z,47.17
2019-04-30T22:52:36.523Z,45.77
2019-04-30T22:55:05.898Z,45.73
2019-04-30T22:57:35.306Z,45.80
2019-04-30T23:00:09.706Z,49.03
2019-04-30T23:02:53.712Z,43.10
2019-04-30T23:05:22.939Z,48.33
2019-04-30T23:07:52.051Z,42.40
2019-04-30T23:10:21.526Z,43.67
2019-04-30T23:12:50.792Z,44.47
2019-04-30T23:15:21.242Z,42.00
2019-04-30T23:17:50.400Z,43.73
2019-04-30T23:20:19.659Z,38.60
2019-04-30T23:22:48.818Z,41.03
2019-04-30T23:25:18.035Z,39.10
2019-04-30T23:27:47.264Z,41.40
2019-04-30T23:30:16.467Z,36.83
2019-04-30T23:32:46.122Z,40.67
2019-04-30T23:35:15.165Z,39.80
2019-04-30T23:37:44.260Z,32.97
2019-04-30T23:40:30.908Z,37.50
2019-04-30T23:43:00.215Z,37.73
2019-04-30T23:45:29.357Z,38.43
2019-04-30T23:47:59.255Z,32.20
2019-04-30T23:50:28.221Z,37.03
2019-04-30T23:52:57.139Z,36.90
2019-04-30T23:55:26.348Z,32.67
2019-04-30T23:57:56.005Z,39.97
